sensor_id;sensor_type;location;lat;lon;timestamp;P1;durP1;ratioP1;P2;durP2;ratioP2
46751;SDS011;32497;48.936;9.270;2023-04-03T00:00:24;0.00;;;0.00;;
46751;SDS011;32497;48.936;9.270;2023-04-03T00:05:26;0.07;;;0.07;;
46751;SDS011;32497;48.936;9.270;2023-04-03T00:10:27;0.10;;;0.00;;
46751;SDS011;32497;48.936;9.270;2023-04-03T00:15:30;0.10;;;0.10;;
46751;SDS011;32497;48.936;9.270;2023-04-03T00:20:31;0.10;;;0.10;;
46751;SDS011;32497;48.936;9.270;2023-04-03T00:25:33;0.80;;;0.50;;
46751;SDS011;32497;48.936;9.270;2023-04-03T00:30:36;0.70;;;0.10;;
46751;SDS011;32497;48.936;9.270;2023-04-03T00:35:39;0.40;;;0.10;;
46751;SDS011;32497;48.936;9.270;2023-04-03T00:40:42;0.20;;;0.20;;
46751;SDS011;32497;48.936;9.270;2023-04-03T00:45:46;0.10;;;0.07;;
46751;SDS011;32497;48.936;9.270;2023-04-03T00:50:48;0.27;;;0.20;;
46751;SDS011;32497;48.936;9.270;2023-04-03T00:55:50;0.17;;;0.00;;
46751;SDS011;32497;48.936;9.270;2023-04-03T01:00:55;0.80;;;0.20;;
46751;SDS011;32497;48.936;9.270;2023-04-03T01:05:59;0.10;;;0.10;;
46751;SDS011;32497;48.936;9.270;2023-04-03T01:11:00;2.73;;;0.40;;
46751;SDS011;32497;48.936;9.270;2023-04-03T01:16:04;0.43;;;0.20;;
46751;SDS011;32497;48.936;9.270;2023-04-03T01:21:09;0.40;;;0.20;;
46751;SDS011;32497;48.936;9.270;2023-04-03T01:26:30;0.40;;;0.20;;
46751;SDS011;32497;48.936;9.270;2023-04-03T01:31:41;0.17;;;0.17;;
46751;SDS011;32497;48.936;9.270;2023-04-03T01:36:50;0.50;;;0.40;;
46751;SDS011;32497;48.936;9.270;2023-04-03T01:41:52;0.20;;;0.20;;
46751;SDS011;32497;48.936;9.270;2023-04-03T01:47:06;0.20;;;0.00;;
46751;SDS011;32497;48.936;9.270;2023-04-03T01:52:08;0.10;;;0.00;;
46751;SDS011;32497;48.936;9.270;2023-04-03T01:57:09;0.10;;;0.07;;
46751;SDS011;32497;48.936;9.270;2023-04-03T02:02:12;0.37;;;0.20;;
46751;SDS011;32497;48.936;9.270;2023-04-03T02:07:13;0.00;;;0.00;;
46751;SDS011;32497;48.936;9.270;2023-04-03T02:12:15;0.10;;;0.10;;
46751;SDS011;32497;48.936;9.270;2023-04-03T02:17:17;0.53;;;0.30;;
46751;SDS011;32497;48.936;9.270;2023-04-03T02:22:18;0.10;;;0.10;;
46751;SDS011;32497;48.936;9.270;2023-04-03T02:27:19;0.00;;;0.00;;
46751;SDS011;32497;48.936;9.270;2023-04-03T02:32:22;0.00;;;0.00;;
46751;SDS011;32497;48.936;9.270;2023-04-03T02:37:23;0.27;;;0.00;;
46751;SDS011;32497;48.936;9.270;2023-04-03T02:42:26;0.17;;;0.10;;
46751;SDS011;32497;48.936;9.270;2023-04-03T02:47:29;0.00;;;0.00;;
46751;SDS011;32497;48.936;9.270;2023-04-03T02:52:30;0.30;;;0.30;;
46751;SDS011;32497;48.936;9.270;2023-04-03T02:57:32;0.10;;;0.10;;
46751;SDS011;32497;48.936;9.270;2023-04-03T03:02:34;0.50;;;0.50;;
46751;SDS011;32497;48.936;9.270;2023-04-03T03:07:36;0.03;;;0.03;;
46751;SDS011;32497;48.936;9.270;2023-04-03T03:12:37;1.03;;;0.23;;
46751;SDS011;32497;48.936;9.270;2023-04-03T03:17:39;0.00;;;0.00;;
46751;SDS011;32497;48.936;9.270;2023-04-03T03:22:40;0.00;;;0.00;;
46751;SDS011;32497;48.936;9.270;2023-04-03T03:27:42;0.00;;;0.00;;
46751;SDS011;32497;48.936;9.270;2023-04-03T03:32:44;0.53;;;0.10;;
46751;SDS011;32497;48.936;9.270;2023-04-03T03:37:45;0.47;;;0.10;;
46751;SDS011;32497;48.936;9.270;2023-04-03T03:42:47;0.17;;;0.17;;
46751;SDS011;32497;48.936;9.270;2023-04-03T03:47:49;0.60;;;0.20;;
46751;SDS011;32497;48.936;9.270;2023-04-03T03:52:51;0.40;;;0.20;;
46751;SDS011;32497;48.936;9.270;2023-04-03T03:57:52;0.73;;;0.30;;
46751;SDS011;32497;48.936;9.270;2023-04-03T04:02:55;0.53;;;0.23;;
46751;SDS011;32497;48.936;9.270;2023-04-03T04:07:58;0.03;;;0.03;;
46751;SDS011;32497;48.936;9.270;2023-04-03T04:12:59;0.43;;;0.17;;
46751;SDS011;32497;48.936;9.270;2023-04-03T04:18:04;0.20;;;0.07;;
46751;SDS011;32497;48.936;9.270;2023-04-03T04:23:06;0.60;;;0.30;;
46751;SDS011;32497;48.936;9.270;2023-04-03T04:28:07;0.37;;;0.13;;
46751;SDS011;32497;48.936;9.270;2023-04-03T04:33:10;0.47;;;0.20;;
46751;SDS011;32497;48.936;9.270;2023-04-03T04:38:13;0.10;;;0.10;;
46751;SDS011;32497;48.936;9.270;2023-04-03T04:43:14;0.20;;;0.20;;
46751;SDS011;32497;48.936;9.270;2023-04-03T04:48:21;0.10;;;0.10;;
46751;SDS011;32497;48.936;9.270;2023-04-03T04:53:22;0.10;;;0.00;;
46751;SDS011;32497;48.936;9.270;2023-04-03T04:58:23;0.57;;;0.10;;
46751;SDS011;32497;48.936;9.270;2023-04-03T05:03:27;0.13;;;0.10;;
46751;SDS011;32497;48.936;9.270;2023-04-03T05:08:28;0.00;;;0.00;;
46751;SDS011;32497;48.936;9.270;2023-04-03T05:13:29;0.00;;;0.00;;
46751;SDS011;32497;48.936;9.270;2023-04-03T05:18:33;0.20;;;0.20;;
46751;SDS011;32497;48.936;9.270;2023-04-03T05:23:39;0.20;;;0.10;;
46751;SDS011;32497;48.936;9.270;2023-04-03T05:28:40;0.40;;;0.13;;
46751;SDS011;32497;48.936;9.270;2023-04-03T05:33:45;0.13;;;0.13;;
46751;SDS011;32497;48.936;9.270;2023-04-03T05:38:50;0.30;;;0.23;;
46751;SDS011;32497;48.936;9.270;2023-04-03T05:43:52;0.10;;;0.10;;
46751;SDS011;32497;48.936;9.270;2023-04-03T05:48:57;0.40;;;0.13;;
46751;SDS011;32497;48.936;9.270;2023-04-03T05:54:03;0.33;;;0.27;;
46751;SDS011;32497;48.936;9.270;2023-04-03T05:59:09;0.53;;;0.20;;
46751;SDS011;32497;48.936;9.270;2023-04-03T06:04:13;0.23;;;0.10;;
46751;SDS011;32497;48.936;9.270;2023-04-03T06:09:15;0.00;;;0.00;;
46751;SDS011;32497;48.936;9.270;2023-04-03T06:14:16;0.73;;;0.40;;
46751;SDS011;32497;48.936;9.270;2023-04-03T06:19:19;1.43;;;0.70;;
46751;SDS011;32497;48.936;9.270;2023-04-03T06:24:24;1.10;;;0.20;;
46751;SDS011;32497;48.936;9.270;2023-04-03T06:29:25;0.73;;;0.30;;
46751;SDS011;32497;48.936;9.270;2023-04-03T06:34:28;1.40;;;0.40;;
46751;SDS011;32497;48.936;9.270;2023-04-03T06:39:29;0.23;;;0.20;;
46751;SDS011;32497;48.936;9.270;2023-04-03T06:44:30;0.20;;;0.10;;
46751;SDS011;32497;48.936;9.270;2023-04-03T06:49:32;0.57;;;0.47;;
46751;SDS011;32497;48.936;9.270;2023-04-03T06:54:34;0.67;;;0.27;;
46751;SDS011;32497;48.936;9.270;2023-04-03T06:59:35;1.17;;;0.63;;
46751;SDS011;32497;48.936;9.270;2023-04-03T07:04:37;1.40;;;0.67;;
46751;SDS011;32497;48.936;9.270;2023-04-03T07:09:39;0.40;;;0.40;;
46751;SDS011;32497;48.936;9.270;2023-04-03T07:14:40;0.83;;;0.40;;
46751;SDS011;32497;48.936;9.270;2023-04-03T07:19:42;0.57;;;0.30;;
46751;SDS011;32497;48.936;9.270;2023-04-03T07:24:43;1.40;;;0.40;;
46751;SDS011;32497;48.936;9.270;2023-04-03T07:29:44;0.53;;;0.50;;
46751;SDS011;32497;48.936;9.270;2023-04-03T07:34:47;0.63;;;0.23;;
46751;SDS011;32497;48.936;9.270;2023-04-03T07:39:48;0.40;;;0.20;;
46751;SDS011;32497;48.936;9.270;2023-04-03T07:44:49;0.57;;;0.30;;
46751;SDS011;32497;48.936;9.270;2023-04-03T07:49:52;0.90;;;0.50;;
46751;SDS011;32497;48.936;9.270;2023-04-03T07:54:53;0.13;;;0.10;;
46751;SDS011;32497;48.936;9.270;2023-04-03T07:59:54;4.80;;;0.63;;
46751;SDS011;32497;48.936;9.270;2023-04-03T08:04:56;0.67;;;0.50;;
46751;SDS011;32497;48.936;9.270;2023-04-03T08:09:57;5.73;;;0.73;;
46751;SDS011;32497;48.936;9.270;2023-04-03T08:14:59;0.60;;;0.50;;
46751;SDS011;32497;48.936;9.270;2023-04-03T08:20:02;1.67;;;0.80;;
46751;SDS011;32497;48.936;9.270;2023-04-03T08:25:04;1.37;;;0.63;;
46751;SDS011;32497;48.936;9.270;2023-04-03T08:30:06;0.93;;;0.73;;
46751;SDS011;32497;48.936;9.270;2023-04-03T08:35:10;1.23;;;0.60;;
46751;SDS011;32497;48.936;9.270;2023-04-03T08:40:13;0.73;;;0.37;;
46751;SDS011;32497;48.936;9.270;2023-04-03T08:45:15;1.23;;;0.60;;
46751;SDS011;32497;48.936;9.270;2023-04-03T08:50:23;0.70;;;0.47;;
46751;SDS011;32497;48.936;9.270;2023-04-03T08:55:28;1.83;;;0.47;;
46751;SDS011;32497;48.936;9.270;2023-04-03T09:00:34;1.10;;;0.53;;
46751;SDS011;32497;48.936;9.270;2023-04-03T09:05:46;0.77;;;0.47;;
46751;SDS011;32497;48.936;9.270;2023-04-03T09:10:51;0.50;;;0.40;;
46751;SDS011;32497;48.936;9.270;2023-04-03T09:15:59;2.20;;;0.63;;
46751;SDS011;32497;48.936;9.270;2023-04-03T09:21:04;1.47;;;0.70;;
46751;SDS011;32497;48.936;9.270;2023-04-03T09:26:16;0.37;;;0.33;;
46751;SDS011;32497;48.936;9.270;2023-04-03T09:31:20;1.43;;;0.60;;
46751;SDS011;32497;48.936;9.270;2023-04-03T09:36:41;1.07;;;0.50;;
46751;SDS011;32497;48.936;9.270;2023-04-03T09:41:54;1.90;;;0.57;;
46751;SDS011;32497;48.936;9.270;2023-04-03T09:46:57;2.97;;;0.80;;
46751;SDS011;32497;48.936;9.270;2023-04-03T09:52:05;2.50;;;0.67;;
46751;SDS011;32497;48.936;9.270;2023-04-03T09:57:19;0.77;;;0.50;;
46751;SDS011;32497;48.936;9.270;2023-04-03T10:02:22;1.70;;;0.60;;
46751;SDS011;32497;48.936;9.270;2023-04-03T10:07:33;0.53;;;0.40;;
46751;SDS011;32497;48.936;9.270;2023-04-03T10:12:35;1.50;;;0.40;;
46751;SDS011;32497;48.936;9.270;2023-04-03T10:17:40;1.17;;;0.63;;
46751;SDS011;32497;48.936;9.270;2023-04-03T10:22:56;1.07;;;0.40;;
46751;SDS011;32497;48.936;9.270;2023-04-03T10:28:07;0.77;;;0.40;;
46751;SDS011;32497;48.936;9.270;2023-04-03T10:33:18;0.93;;;0.30;;
46751;SDS011;32497;48.936;9.270;2023-04-03T10:38:33;0.50;;;0.30;;
46751;SDS011;32497;48.936;9.270;2023-04-03T10:43:40;0.70;;;0.40;;
46751;SDS011;32497;48.936;9.270;2023-04-03T10:48:53;0.83;;;0.53;;
46751;SDS011;32497;48.936;9.270;2023-04-03T10:54:17;1.03;;;0.30;;
46751;SDS011;32497;48.936;9.270;2023-04-03T10:59:25;0.80;;;0.40;;
46751;SDS011;32497;48.936;9.270;2023-04-03T11:04:31;0.67;;;0.50;;
46751;SDS011;32497;48.936;9.270;2023-04-03T11:09:39;0.87;;;0.30;;
46751;SDS011;32497;48.936;9.270;2023-04-03T11:14:43;0.73;;;0.30;;
46751;SDS011;32497;48.936;9.270;2023-04-03T11:19:49;0.30;;;0.20;;
46751;SDS011;32497;48.936;9.270;2023-04-03T11:25:02;1.23;;;0.40;;
46751;SDS011;32497;48.936;9.270;2023-04-03T11:30:15;1.23;;;0.50;;
46751;SDS011;32497;48.936;9.270;2023-04-03T11:35:21;1.20;;;0.30;;
46751;SDS011;32497;48.936;9.270;2023-04-03T11:40:25;0.80;;;0.30;;
46751;SDS011;32497;48.936;9.270;2023-04-03T11:45:32;0.77;;;0.30;;
46751;SDS011;32497;48.936;9.270;2023-04-03T11:50:42;0.87;;;0.30;;
46751;SDS011;32497;48.936;9.270;2023-04-03T11:55:47;0.27;;;0.20;;
46751;SDS011;32497;48.936;9.270;2023-04-03T12:01:07;2.60;;;0.50;;
46751;SDS011;32497;48.936;9.270;2023-04-03T12:11:56;0.67;;;0.20;;
46751;SDS011;32497;48.936;9.270;2023-04-03T12:16:59;0.90;;;0.60;;
46751;SDS011;32497;48.936;9.270;2023-04-03T12:27:27;1.03;;;0.53;;
46751;SDS011;32497;48.936;9.270;2023-04-03T12:32:40;0.83;;;0.40;;
46751;SDS011;32497;48.936;9.270;2023-04-03T12:38:13;0.60;;;0.30;;
46751;SDS011;32497;48.936;9.270;2023-04-03T12:43:54;1.27;;;0.40;;
46751;SDS011;32497;48.936;9.270;2023-04-03T12:49:10;0.87;;;0.40;;
46751;SDS011;32497;48.936;9.270;2023-04-03T12:54:19;0.53;;;0.40;;
46751;SDS011;32497;48.936;9.270;2023-04-03T12:59:26;0.47;;;0.23;;
46751;SDS011;32497;48.936;9.270;2023-04-03T13:04:27;0.83;;;0.50;;
46751;SDS011;32497;48.936;9.270;2023-04-03T13:09:31;0.60;;;0.30;;
46751;SDS011;32497;48.936;9.270;2023-04-03T13:14:33;2.57;;;0.53;;
46751;SDS011;32497;48.936;9.270;2023-04-03T13:19:34;1.73;;;0.40;;
46751;SDS011;32497;48.936;9.270;2023-04-03T13:24:36;0.83;;;0.30;;
46751;SDS011;32497;48.936;9.270;2023-04-03T13:29:40;1.20;;;0.40;;
46751;SDS011;32497;48.936;9.270;2023-04-03T13:34:42;1.40;;;0.40;;
46751;SDS011;32497;48.936;9.270;2023-04-03T13:39:43;0.80;;;0.30;;
46751;SDS011;32497;48.936;9.270;2023-04-03T13:44:46;0.87;;;0.47;;
46751;SDS011;32497;48.936;9.270;2023-04-03T13:49:59;1.80;;;0.57;;
46751;SDS011;32497;48.936;9.270;2023-04-03T13:55:04;1.20;;;0.47;;
46751;SDS011;32497;48.936;9.270;2023-04-03T14:00:31;0.70;;;0.40;;
46751;SDS011;32497;48.936;9.270;2023-04-03T14:05:34;0.67;;;0.40;;
46751;SDS011;32497;48.936;9.270;2023-04-03T14:10:36;0.60;;;0.23;;
46751;SDS011;32497;48.936;9.270;2023-04-03T14:15:39;1.00;;;0.50;;
46751;SDS011;32497;48.936;9.270;2023-04-03T14:20:40;1.30;;;0.43;;
46751;SDS011;32497;48.936;9.270;2023-04-03T14:25:41;0.50;;;0.20;;
46751;SDS011;32497;48.936;9.270;2023-04-03T14:30:44;0.90;;;0.40;;
46751;SDS011;32497;48.936;9.270;2023-04-03T14:35:47;0.80;;;0.40;;
46751;SDS011;32497;48.936;9.270;2023-04-03T14:40:49;0.90;;;0.27;;
46751;SDS011;32497;48.936;9.270;2023-04-03T14:45:52;0.50;;;0.33;;
46751;SDS011;32497;48.936;9.270;2023-04-03T14:50:53;0.70;;;0.50;;
46751;SDS011;32497;48.936;9.270;2023-04-03T14:55:55;1.00;;;0.47;;
46751;SDS011;32497;48.936;9.270;2023-04-03T15:00:57;0.63;;;0.43;;
46751;SDS011;32497;48.936;9.270;2023-04-03T15:05:58;0.80;;;0.50;;
46751;SDS011;32497;48.936;9.270;2023-04-03T15:10:59;1.03;;;0.50;;
46751;SDS011;32497;48.936;9.270;2023-04-03T15:16:02;0.67;;;0.30;;
46751;SDS011;32497;48.936;9.270;2023-04-03T15:21:04;0.40;;;0.30;;
46751;SDS011;32497;48.936;9.270;2023-04-03T15:26:05;1.03;;;0.60;;
46751;SDS011;32497;48.936;9.270;2023-04-03T15:31:08;1.08;;;0.57;;
46751;SDS011;32497;48.936;9.270;2023-04-03T15:36:09;1.52;;;0.80;;
46751;SDS011;32497;48.936;9.270;2023-04-03T15:41:11;0.98;;;0.60;;
46751;SDS011;32497;48.936;9.270;2023-04-03T15:46:13;0.70;;;0.53;;
46751;SDS011;32497;48.936;9.270;2023-04-03T15:51:15;0.50;;;0.23;;
46751;SDS011;32497;48.936;9.270;2023-04-03T15:56:16;1.73;;;0.30;;
46751;SDS011;32497;48.936;9.270;2023-04-03T16:01:20;1.47;;;0.40;;
46751;SDS011;32497;48.936;9.270;2023-04-03T16:06:22;1.23;;;0.53;;
46751;SDS011;32497;48.936;9.270;2023-04-03T16:11:25;2.93;;;0.60;;
46751;SDS011;32497;48.936;9.270;2023-04-03T16:16:28;0.60;;;0.30;;
46751;SDS011;32497;48.936;9.270;2023-04-03T16:21:30;0.73;;;0.40;;
46751;SDS011;32497;48.936;9.270;2023-04-03T16:26:32;0.63;;;0.40;;
46751;SDS011;32497;48.936;9.270;2023-04-03T16:31:35;0.47;;;0.30;;
46751;SDS011;32497;48.936;9.270;2023-04-03T16:36:36;1.83;;;0.40;;
46751;SDS011;32497;48.936;9.270;2023-04-03T16:41:37;0.77;;;0.30;;
46751;SDS011;32497;48.936;9.270;2023-04-03T16:46:40;0.80;;;0.27;;
46751;SDS011;32497;48.936;9.270;2023-04-03T16:51:41;0.80;;;0.47;;
46751;SDS011;32497;48.936;9.270;2023-04-03T16:56:42;1.30;;;0.23;;
46751;SDS011;32497;48.936;9.270;2023-04-03T17:01:45;1.50;;;0.70;;
46751;SDS011;32497;48.936;9.270;2023-04-03T17:06:46;0.63;;;0.13;;
46751;SDS011;32497;48.936;9.270;2023-04-03T17:11:47;0.77;;;0.30;;
46751;SDS011;32497;48.936;9.270;2023-04-03T17:16:50;1.20;;;0.50;;
46751;SDS011;32497;48.936;9.270;2023-04-03T17:21:51;0.67;;;0.27;;
46751;SDS011;32497;48.936;9.270;2023-04-03T17:26:53;1.27;;;0.37;;
46751;SDS011;32497;48.936;9.270;2023-04-03T17:31:55;0.97;;;0.87;;
46751;SDS011;32497;48.936;9.270;2023-04-03T17:36:56;0.30;;;0.30;;
46751;SDS011;32497;48.936;9.270;2023-04-03T17:41:58;0.70;;;0.30;;
46751;SDS011;32497;48.936;9.270;2023-04-03T17:47:00;1.00;;;0.23;;
46751;SDS011;32497;48.936;9.270;2023-04-03T17:52:01;0.20;;;0.20;;
46751;SDS011;32497;48.936;9.270;2023-04-03T17:57:02;0.57;;;0.30;;
46751;SDS011;32497;48.936;9.270;2023-04-03T18:02:05;0.10;;;0.10;;
46751;SDS011;32497;48.936;9.270;2023-04-03T18:07:06;0.37;;;0.10;;
46751;SDS011;32497;48.936;9.270;2023-04-03T18:12:07;0.53;;;0.37;;
46751;SDS011;32497;48.936;9.270;2023-04-03T18:17:11;1.27;;;0.27;;
46751;SDS011;32497;48.936;9.270;2023-04-03T18:22:13;0.03;;;0.03;;
46751;SDS011;32497;48.936;9.270;2023-04-03T18:27:17;0.77;;;0.33;;
46751;SDS011;32497;48.936;9.270;2023-04-03T18:32:21;0.10;;;0.10;;
46751;SDS011;32497;48.936;9.270;2023-04-03T18:37:22;0.03;;;0.00;;
46751;SDS011;32497;48.936;9.270;2023-04-03T18:42:24;0.20;;;0.10;;
46751;SDS011;32497;48.936;9.270;2023-04-03T18:47:27;0.50;;;0.20;;
46751;SDS011;32497;48.936;9.270;2023-04-03T18:52:29;0.30;;;0.10;;
46751;SDS011;32497;48.936;9.270;2023-04-03T18:57:30;0.63;;;0.30;;
46751;SDS011;32497;48.936;9.270;2023-04-03T19:02:32;0.17;;;0.10;;
46751;SDS011;32497;48.936;9.270;2023-04-03T19:07:34;1.80;;;0.30;;
46751;SDS011;32497;48.936;9.270;2023-04-03T19:12:35;0.10;;;0.10;;
46751;SDS011;32497;48.936;9.270;2023-04-03T19:17:38;0.03;;;0.00;;
46751;SDS011;32497;48.936;9.270;2023-04-03T19:22:39;1.00;;;0.20;;
46751;SDS011;32497;48.936;9.270;2023-04-03T19:27:40;0.30;;;0.10;;
46751;SDS011;32497;48.936;9.270;2023-04-03T19:32:42;0.40;;;0.20;;
46751;SDS011;32497;48.936;9.270;2023-04-03T19:37:44;0.00;;;0.00;;
46751;SDS011;32497;48.936;9.270;2023-04-03T19:42:45;0.20;;;0.10;;
46751;SDS011;32497;48.936;9.270;2023-04-03T19:47:47;0.73;;;0.33;;
46751;SDS011;32497;48.936;9.270;2023-04-03T19:52:48;0.00;;;0.00;;
46751;SDS011;32497;48.936;9.270;2023-04-03T19:57:49;0.20;;;0.10;;
46751;SDS011;32497;48.936;9.270;2023-04-03T20:02:52;0.10;;;0.10;;
46751;SDS011;32497;48.936;9.270;2023-04-03T20:07:54;0.37;;;0.20;;
46751;SDS011;32497;48.936;9.270;2023-04-03T20:12:55;0.07;;;0.07;;
46751;SDS011;32497;48.936;9.270;2023-04-03T20:17:57;0.13;;;0.00;;
46751;SDS011;32497;48.936;9.270;2023-04-03T20:22:58;0.00;;;0.00;;
46751;SDS011;32497;48.936;9.270;2023-04-03T20:28:00;0.03;;;0.00;;
46751;SDS011;32497;48.936;9.270;2023-04-03T20:33:02;0.47;;;0.47;;
46751;SDS011;32497;48.936;9.270;2023-04-03T20:38:04;1.13;;;0.20;;
46751;SDS011;32497;48.936;9.270;2023-04-03T20:43:05;0.50;;;0.10;;
46751;SDS011;32497;48.936;9.270;2023-04-03T20:48:08;0.00;;;0.00;;
46751;SDS011;32497;48.936;9.270;2023-04-03T20:53:09;0.00;;;0.00;;
46751;SDS011;32497;48.936;9.270;2023-04-03T20:58:10;0.10;;;0.10;;
46751;SDS011;32497;48.936;9.270;2023-04-03T21:03:12;0.07;;;0.07;;
46751;SDS011;32497;48.936;9.270;2023-04-03T21:19:32;0.00;;;0.00;;
46751;SDS011;32497;48.936;9.270;2023-04-03T21:24:34;0.00;;;0.00;;
46751;SDS011;32497;48.936;9.270;2023-04-03T21:29:36;0.10;;;0.03;;
46751;SDS011;32497;48.936;9.270;2023-04-03T21:34:38;0.00;;;0.00;;
46751;SDS011;32497;48.936;9.270;2023-04-03T21:39:39;0.07;;;0.03;;
46751;SDS011;32497;48.936;9.270;2023-04-03T21:44:40;0.00;;;0.00;;
46751;SDS011;32497;48.936;9.270;2023-04-03T21:49:43;0.07;;;0.00;;
46751;SDS011;32497;48.936;9.270;2023-04-03T21:54:44;0.73;;;0.00;;
46751;SDS011;32497;48.936;9.270;2023-04-03T21:59:45;0.60;;;0.20;;
46751;SDS011;32497;48.936;9.270;2023-04-03T22:04:47;0.00;;;0.00;;
46751;SDS011;32497;48.936;9.270;2023-04-03T22:09:48;0.10;;;0.10;;
46751;SDS011;32497;48.936;9.270;2023-04-03T22:14:49;0.00;;;0.00;;
46751;SDS011;32497;48.936;9.270;2023-04-03T22:19:52;0.00;;;0.00;;
46751;SDS011;32497;48.936;9.270;2023-04-03T22:24:53;0.00;;;0.00;;
46751;SDS011;32497;48.936;9.270;2023-04-03T22:29:54;0.27;;;0.10;;
46751;SDS011;32497;48.936;9.270;2023-04-03T22:34:56;0.00;;;0.00;;
46751;SDS011;32497;48.936;9.270;2023-04-03T22:39:57;0.00;;;0.00;;
46751;SDS011;32497;48.936;9.270;2023-04-03T22:44:58;0.10;;;0.10;;
46751;SDS011;32497;48.936;9.270;2023-04-03T22:50:01;0.00;;;0.00;;
46751;SDS011;32497;48.936;9.270;2023-04-03T22:55:02;0.00;;;0.00;;
46751;SDS011;32497;48.936;9.270;2023-04-03T23:00:04;0.00;;;0.00;;
46751;SDS011;32497;48.936;9.270;2023-04-03T23:05:08;0.00;;;0.00;;
46751;SDS011;32497;48.936;9.270;2023-04-03T23:10:09;0.00;;;0.00;;
46751;SDS011;32497;48.936;9.270;2023-04-03T23:15:10;0.00;;;0.00;;
46751;SDS011;32497;48.936;9.270;2023-04-03T23:20:13;0.30;;;0.17;;
46751;SDS011;32497;48.936;9.270;2023-04-03T23:25:14;0.33;;;0.20;;
46751;SDS011;32497;48.936;9.270;2023-04-03T23:30:15;0.30;;;0.07;;
46751;SDS011;32497;48.936;9.270;2023-04-03T23:35:18;0.00;;;0.00;;
46751;SDS011;32497;48.936;9.270;2023-04-03T23:40:19;0.00;;;0.00;;
46751;SDS011;32497;48.936;9.270;2023-04-03T23:45:20;0.93;;;0.30;;
46751;SDS011;32497;48.936;9.270;2023-04-03T23:50:22;0.13;;;0.07;;
46751;SDS011;32497;48.936;9.270;2023-04-03T23:55:23;0.90;;;0.30;;
